Time;durP1;ratioP1;P1;durP2;ratioP2;P2;SDS_P1;SDS_P2;PMS_P1;PMS_P2;Temp;Humidity;BMP_temperature;BMP_pressure;BME280_temperature;BME280_humidity;BME280_pressure;Samples;Min_cycle;Max_cycle;Signal;HPM_P1;HPM_P2
2021/01/30 00:00:50;;;;;;;35.35;16.88;;;-4.90;99.60;;;;;;5093109;28;20036;-76
2021/01/30 00:03:16;;;;;;;36.85;18.25;;;-4.90;99.60;;;;;;5093212;28;20024;-76
2021/01/30 00:05:42;;;;;;;34.55;16.23;;;-5.00;99.50;;;;;;5093527;28;20028;-76
2021/01/30 00:08:09;;;;;;;33.55;16.48;;;-4.90;99.70;;;;;;5074655;28;20031;-76
2021/01/30 00:10:35;;;;;;;36.55;18.17;;;-4.90;99.70;;;;;;5075206;28;20032;-77
2021/01/30 00:13:01;;;;;;;40.22;20.38;;;-4.90;99.80;;;;;;5093077;28;20017;-77
2021/01/30 00:15:28;;;;;;;40.03;23.77;;;-4.80;99.80;;;;;;5092896;28;20013;-76
2021/01/30 00:17:55;;;;;;;42.05;23.08;;;-4.80;99.60;;;;;;5092027;28;20039;-75
2021/01/30 00:20:28;;;;;;;41.95;21.25;;;-4.80;99.70;;;;;;5074048;28;20535;-76
2021/01/30 00:22:54;;;;;;;41.38;18.35;;;-4.90;99.30;;;;;;5074463;28;20416;-76
2021/01/30 00:25:26;;;;;;;41.75;19.52;;;-5.00;98.90;;;;;;5092913;28;20366;-76
2021/01/30 00:27:53;;;;;;;46.28;19.95;;;-5.10;98.80;;;;;;5092958;28;20024;-76
2021/01/30 00:30:22;;;;;;;43.83;22.05;;;-5.10;98.70;;;;;;5073443;28;20020;-75
2021/01/30 00:32:48;;;;;;;54.42;24.30;;;-5.20;98.70;;;;;;5074250;28;20032;-77
2021/01/30 00:35:15;;;;;;;52.45;23.80;;;-5.30;98.60;;;;;;5092406;28;20024;-76
2021/01/30 00:37:41;;;;;;;47.92;23.35;;;-5.30;98.60;;;;;;5093612;28;20024;-76
2021/01/30 00:40:08;;;;;;;49.92;21.23;;;-5.40;98.60;;;;;;5096573;28;20043;-76
2021/01/30 00:42:34;;;;;;;58.92;27.02;;;-5.50;98.70;;;;;;5096806;28;20095;-76
2021/01/30 00:45:00;;;;;;;46.30;22.45;;;-5.40;98.80;;;;;;5096426;28;20085;-75
2021/01/30 00:47:26;;;;;;;49.92;23.27;;;-5.40;98.90;;;;;;5096797;28;20040;-76
2021/01/30 00:49:52;;;;;;;43.67;21.55;;;-5.40;98.70;;;;;;5096571;28;20428;-75
2021/01/30 00:52:20;;;;;;;44.38;20.27;;;-5.40;98.60;;;;;;5096933;28;20450;-76
2021/01/30 00:54:46;;;;;;;39.30;19.40;;;-5.50;98.60;;;;;;5078952;28;20385;-76
2021/01/30 00:57:12;;;;;;;46.30;22.27;;;-5.50;98.70;;;;;;5078206;28;20148;-76
2021/01/30 00:59:40;;;;;;;47.72;22.35;;;-5.60;98.80;;;;;;5096436;28;20063;-77
2021/01/30 01:02:06;;;;;;;54.72;25.05;;;-5.60;98.80;;;;;;5078170;28;20437;-76
2021/01/30 01:04:32;;;;;;;62.95;25.90;;;-5.60;98.90;;;;;;5096045;28;20063;-75
2021/01/30 01:06:57;;;;;;;60.08;27.58;;;-5.60;99.00;;;;;;5078298;28;20466;-76
2021/01/30 01:09:23;;;;;;;65.10;29.90;;;-5.60;98.80;;;;;;5096128;28;20037;-75
2021/01/30 01:11:51;;;;;;;67.80;28.90;;;-5.70;98.70;;;;;;5096349;28;20417;-76
2021/01/30 01:14:22;;;;;;;68.47;29.65;;;-5.70;98.90;;;;;;5075932;28;20066;-76
2021/01/30 01:16:48;;;;;;;68.72;28.13;;;-5.70;98.90;;;;;;5087813;28;20038;-75
2021/01/30 01:19:14;;;;;;;73.32;29.17;;;-5.70;98.90;;;;;;5095977;28;20103;-73
2021/01/30 01:21:40;;;;;;;77.50;30.30;;;-5.70;98.90;;;;;;5096558;28;20034;-76
2021/01/30 01:24:06;;;;;;;69.53;28.20;;;-5.70;98.90;;;;;;5095642;28;20016;-76
2021/01/30 01:26:32;;;;;;;56.83;26.52;;;-5.70;99.10;;;;;;5077805;28;20496;-76
2021/01/30 01:28:58;;;;;;;65.13;25.95;;;-5.70;99.10;;;;;;5095789;28;20024;-76
2021/01/30 01:31:23;;;;;;;66.82;27.85;;;-5.70;99.10;;;;;;5077468;28;20489;-76
2021/01/30 01:33:49;;;;;;;65.90;27.40;;;-5.70;99.00;;;;;;5095465;28;20032;-71
2021/01/30 01:36:19;;;;;;;65.60;27.20;;;-5.80;99.10;;;;;;5078397;28;20529;-76
2021/01/30 01:38:45;;;;;;;64.88;28.20;;;-5.80;98.80;;;;;;5095569;28;20035;-76
2021/01/30 01:41:12;;;;;;;64.60;27.08;;;-5.80;98.80;;;;;;5077390;28;20390;-76
2021/01/30 01:43:39;;;;;;;61.08;26.13;;;-5.80;98.90;;;;;;5095900;28;20031;-76
2021/01/30 01:46:10;;;;;;;60.65;26.00;;;-5.80;98.90;;;;;;5095124;28;20454;-76
2021/01/30 01:48:40;;;;;;;59.50;28.15;;;-5.80;99.00;;;;;;5095309;28;20048;-76
2021/01/30 01:51:09;;;;;;;63.60;27.90;;;-5.80;99.20;;;;;;5095669;28;20035;-76
2021/01/30 01:53:41;;;;;;;66.55;28.55;;;-5.70;99.30;;;;;;5095491;28;20024;-76
2021/01/30 01:56:24;;;;;;;63.63;27.58;;;-5.70;99.30;;;;;;5095519;28;20032;-76
2021/01/30 01:58:55;;;;;;;65.13;27.65;;;-5.70;99.10;;;;;;5095537;28;20043;-76
2021/01/30 02:01:21;;;;;;;58.58;27.35;;;-5.70;99.20;;;;;;5095089;28;20435;-76
2021/01/30 02:03:52;;;;;;;54.75;25.02;;;-5.70;99.00;;;;;;5095739;28;20024;-76
2021/01/30 02:06:18;;;;;;;59.35;26.00;;;-5.70;99.10;;;;;;5095284;28;20386;-76
2021/01/30 02:08:45;;;;;;;61.10;25.55;;;-5.70;99.20;;;;;;5095092;28;20105;-76
2021/01/30 02:11:11;;;;;;;54.03;24.27;;;-5.70;98.90;;;;;;5094981;28;20024;-76
2021/01/30 02:13:50;;;;;;;63.15;26.35;;;-5.70;98.90;;;;;;5054955;28;20397;-76
2021/01/30 02:16:35;;;;;;;68.80;29.23;;;-5.80;98.90;;;;;;5077053;28;20596;-77
2021/01/30 02:19:27;;;;;;;64.03;31.00;;;-5.80;98.90;;;;;;5095066;28;20043;-76
2021/01/30 02:22:08;;;;;;;63.30;28.65;;;-5.80;98.90;;;;;;5076343;28;20023;-76
2021/01/30 02:24:59;;;;;;;68.95;32.28;;;-5.80;98.90;;;;;;5094924;28;20081;-76
2021/01/30 02:27:28;;;;;;;80.57;34.33;;;-5.80;98.90;;;;;;5079854;28;20028;-76
2021/01/30 02:30:25;;;;;;;74.25;31.52;;;-5.80;98.90;;;;;;5094391;28;20020;-76
2021/01/30 02:32:56;;;;;;;;;;;-5.80;99.00;;;;;;5076909;28;20031;-76
2021/01/30 02:35:49;;;;;;;83.50;34.17;;;-5.80;99.00;;;;;;5094694;28;19942;-77
2021/01/30 02:38:21;;;;;;;76.53;32.20;;;-5.80;99.00;;;;;;5094414;28;20028;-76
2021/01/30 02:40:52;;;;;;;69.88;29.40;;;-5.80;99.10;;;;;;5076383;28;20020;-76
2021/01/30 02:43:22;;;;;;;72.65;31.50;;;-5.80;99.10;;;;;;5076442;28;20024;-77
2021/01/30 02:45:58;;;;;;;73.63;30.80;;;-5.80;99.20;;;;;;5094425;28;20348;-76
2021/01/30 02:48:32;;;;;;;69.85;30.13;;;-5.80;99.20;;;;;;5075894;28;20044;-77
2021/01/30 02:51:02;;;;;;;62.42;30.85;;;-5.80;99.30;;;;;;5094095;28;20024;-76
2021/01/30 02:53:34;;;;;;;64.97;28.88;;;-5.70;99.30;;;;;;5094184;28;20036;-76
2021/01/30 02:56:04;;;;;;;56.28;25.95;;;-5.60;99.50;;;;;;5075861;28;20090;-76
2021/01/30 02:58:39;;;;;;;54.88;26.17;;;-5.50;99.60;;;;;;5094281;28;20067;-76
2021/01/30 03:01:05;;;;;;;;;;;-5.50;99.30;;;;;;5093772;28;20059;-76
2021/01/30 03:03:32;;;;;;;67.43;30.20;;;-5.60;98.70;;;;;;5094560;28;19950;-77
2021/01/30 03:06:05;;;;;;;62.78;27.90;;;-5.70;98.20;;;;;;5075566;28;20043;-76
2021/01/30 03:08:41;;;;;;;67.65;30.85;;;-5.90;98.20;;;;;;5076010;28;20028;-76
2021/01/30 03:11:16;;;;;;;62.95;30.40;;;-5.90;98.00;;;;;;5093865;28;20032;-76
2021/01/30 03:14:12;;;;;;;62.83;29.38;;;-6.10;97.90;;;;;;5093817;28;20035;-76
2021/01/30 03:16:40;;;;;;;65.70;29.83;;;-6.20;97.70;;;;;;5082882;28;20032;-76
2021/01/30 03:19:28;;;;;;;66.90;30.00;;;-6.20;98.00;;;;;;5093849;28;20032;-76
2021/01/30 03:21:59;;;;;;;68.00;29.80;;;-6.20;98.20;;;;;;5075114;28;20020;-76
2021/01/30 03:24:26;;;;;;;69.85;29.85;;;-6.20;98.50;;;;;;5075973;28;20020;-77
2021/01/30 03:26:53;;;;;;;66.68;30.02;;;-6.20;98.50;;;;;;5093562;28;20378;-77
2021/01/30 03:29:19;;;;;;;62.15;28.98;;;-6.20;98.40;;;;;;5093700;28;20012;-76
2021/01/30 03:31:46;;;;;;;61.63;30.08;;;-6.20;98.40;;;;;;5075293;28;20390;-75
2021/01/30 03:34:14;;;;;;;60.42;28.58;;;-6.20;98.30;;;;;;5093388;28;20098;-76
2021/01/30 03:36:41;;;;;;;59.38;29.95;;;-6.20;98.20;;;;;;5075276;28;20035;-75
2021/01/30 03:39:12;;;;;;;63.33;28.80;;;-6.20;98.10;;;;;;5093470;28;20035;-76
2021/01/30 03:41:38;;;;;;;64.80;31.08;;;-6.20;98.30;;;;;;5093601;28;20112;-76
2021/01/30 03:44:04;;;;;;;66.88;31.02;;;-6.20;98.10;;;;;;5093101;28;20052;-75
2021/01/30 03:46:30;;;;;;;70.72;31.80;;;-6.30;98.00;;;;;;5093365;28;20024;-75
2021/01/30 03:48:56;;;;;;;71.13;33.85;;;-6.30;98.10;;;;;;5093117;28;20493;-76
2021/01/30 03:51:21;;;;;;;68.70;33.42;;;-6.30;98.00;;;;;;5075088;28;20031;-76
2021/01/30 03:53:47;;;;;;;70.88;34.97;;;-6.30;98.00;;;;;;5093418;28;20070;-76
2021/01/30 03:56:13;;;;;;;73.15;34.78;;;-6.30;98.00;;;;;;5092758;28;20022;-76
2021/01/30 03:58:39;;;;;;;76.38;36.55;;;-6.30;98.00;;;;;;5075143;28;20385;-76
2021/01/30 04:01:05;;;;;;;70.32;34.25;;;-6.30;98.00;;;;;;5093269;28;20089;-77
2021/01/30 04:03:31;;;;;;;69.93;34.80;;;-6.30;97.90;;;;;;5074985;28;20036;-75
2021/01/30 04:05:57;;;;;;;71.13;32.90;;;-6.30;97.90;;;;;;5092897;28;20020;-75
2021/01/30 04:08:22;;;;;;;74.88;32.63;;;-6.30;97.60;;;;;;5093515;28;20035;-76
2021/01/30 04:10:48;;;;;;;74.88;36.05;;;-6.40;97.30;;;;;;5075159;28;20029;-76
2021/01/30 04:13:14;;;;;;;80.82;37.90;;;-6.40;97.40;;;;;;5078308;28;20024;-76
2021/01/30 04:15:42;;;;;;;126.00;48.13;;;-6.50;97.40;;;;;;5079189;28;20020;-76
2021/01/30 04:18:09;;;;;;;118.72;45.67;;;-6.50;97.30;;;;;;5096815;28;20470;-76
2021/01/30 04:20:35;;;;;;;75.75;34.08;;;-6.50;97.50;;;;;;5079148;28;20048;-76
2021/01/30 04:23:02;;;;;;;77.63;33.28;;;-6.50;97.70;;;;;;5097190;28;20063;-76
2021/01/30 04:25:28;;;;;;;72.35;32.45;;;-6.40;97.60;;;;;;5078844;28;20043;-75
2021/01/30 04:27:55;;;;;;;64.35;27.95;;;-6.50;97.60;;;;;;5096751;28;20056;-75
2021/01/30 04:30:24;;;;;;;59.58;25.73;;;-6.40;97.70;;;;;;5096837;28;20035;-75
2021/01/30 04:32:50;;;;;;;79.43;33.95;;;-6.40;97.90;;;;;;5078586;28;20111;-75
2021/01/30 04:35:22;;;;;;;62.47;26.42;;;-6.30;97.90;;;;;;5096755;28;20024;-75
2021/01/30 04:37:47;;;;;;;52.88;24.67;;;-6.30;97.90;;;;;;5078728;28;20032;-76
2021/01/30 04:40:30;;;;;;;50.58;23.95;;;-6.40;97.60;;;;;;5078691;28;20470;-75
2021/01/30 04:43:23;;;;;;;44.88;20.45;;;-6.40;97.80;;;;;;5067164;28;20028;-76
2021/01/30 04:46:14;;;;;;;42.35;20.88;;;-6.40;98.00;;;;;;5078643;28;20050;-76
2021/01/30 04:49:18;;;;;;;36.35;17.77;;;-6.30;98.10;;;;;;5096796;28;20051;-76
2021/01/30 04:52:05;;;;;;;43.92;19.45;;;-6.30;98.30;;;;;;5096738;28;20028;-76
2021/01/30 04:55:00;;;;;;;52.47;25.48;;;-6.40;98.00;;;;;;5078266;28;20035;-76
2021/01/30 04:57:55;;;;;;;40.72;19.83;;;-6.40;97.80;;;;;;5072098;28;20036;-76
2021/01/30 05:01:03;;;;;;;47.45;21.25;;;-6.50;97.70;;;;;;5069830;28;20402;-76
2021/01/30 05:03:57;;;;;;;60.45;28.08;;;-6.50;97.80;;;;;;5078374;28;20024;-76
2021/01/30 05:06:47;;;;;;;55.40;26.02;;;-6.60;97.80;;;;;;5096023;28;20020;-75
2021/01/30 05:09:54;;;;;;;47.17;22.58;;;-6.50;98.40;;;;;;5078108;28;20024;-76
2021/01/30 05:12:53;;;;;;;130.50;49.38;;;-6.30;98.70;;;;;;5077899;28;20424;-76
2021/01/30 05:15:39;;;;;;;52.47;24.67;;;-6.20;98.90;;;;;;5085013;28;20020;-76
2021/01/30 05:18:09;;;;;;;42.53;20.55;;;-6.20;98.70;;;;;;5095971;28;20035;-75
2021/01/30 05:20:40;;;;;;;39.20;18.23;;;-6.10;98.60;;;;;;5077943;28;20393;-77
2021/01/30 05:23:08;;;;;;;47.42;21.40;;;-6.20;97.50;;;;;;5095252;28;20024;-75
2021/01/30 05:25:34;;;;;;;40.38;20.23;;;-6.30;97.10;;;;;;5096168;28;20063;-83
2021/01/30 05:28:13;;;;;;;36.63;17.80;;;-6.40;97.40;;;;;;5077186;28;20393;-83
2021/01/30 05:31:09;;;;;;;35.53;17.00;;;-6.30;97.90;;;;;;5077171;28;20027;-83
2021/01/30 05:33:44;;;;;;;29.77;13.85;;;-6.30;98.00;;;;;;5089866;28;20089;-83
2021/01/30 05:36:25;;;;;;;32.15;15.52;;;-6.30;97.90;;;;;;5074074;28;20040;-79
2021/01/30 05:39:03;;;;;;;30.98;16.15;;;-6.30;97.70;;;;;;5093891;28;20395;-77
2021/01/30 05:41:31;;;;;;;31.23;15.43;;;-6.30;97.90;;;;;;5078248;28;20037;-76
2021/01/30 05:44:28;;;;;;;36.75;18.48;;;-6.30;98.00;;;;;;5081668;28;20101;-76
2021/01/30 05:46:54;;;;;;;36.90;18.52;;;-6.30;98.40;;;;;;5085973;28;20100;-77
2021/01/30 05:49:29;;;;;;;33.17;16.50;;;-6.30;98.40;;;;;;5091417;28;20051;-77
2021/01/30 05:52:04;;;;;;;44.50;21.27;;;-6.30;98.50;;;;;;5089437;28;20062;-77
2021/01/30 05:54:29;;;;;;;43.15;20.90;;;-6.20;98.80;;;;;;5071142;28;20467;-77
2021/01/30 05:56:55;;;;;;;44.00;20.60;;;-6.10;99.00;;;;;;5089851;28;20036;-77
2021/01/30 05:59:26;;;;;;;56.35;27.48;;;-5.90;99.40;;;;;;5088861;28;20031;-77
2021/01/30 06:02:17;;;;;;;45.17;22.40;;;-5.90;99.30;;;;;;5071122;28;20028;-76
2021/01/30 06:04:43;;;;;;;49.80;23.98;;;-5.80;99.10;;;;;;5089569;28;20035;-77
2021/01/30 06:07:32;;;;;;;51.15;24.95;;;-5.70;99.00;;;;;;5088671;28;20395;-76
2021/01/30 06:10:16;;;;;;;44.22;23.38;;;-5.70;99.00;;;;;;5077154;28;20061;-75
2021/01/30 06:12:42;;;;;;;54.47;25.80;;;-5.60;99.10;;;;;;5083514;28;20039;-77
2021/01/30 06:15:19;;;;;;;52.67;26.50;;;-5.60;99.10;;;;;;5085904;28;20108;-76
2021/01/30 06:17:45;;;;;;;81.82;37.58;;;-5.50;99.20;;;;;;5081872;28;20070;-77
2021/01/30 06:20:21;;;;;;;103.68;46.38;;;-5.40;99.20;;;;;;5088640;28;20056;-77
2021/01/30 06:23:11;;;;;;;115.07;49.55;;;-5.30;99.30;;;;;;5084220;28;20079;-76
2021/01/30 06:25:40;;;;;;;141.98;62.92;;;-5.10;99.70;;;;;;5075862;28;20021;-77
2021/01/30 06:28:12;;;;;;;156.68;68.97;;;-4.90;99.90;;;;;;5082233;28;20032;-76
2021/01/30 06:30:40;;;;;;;160.15;71.45;;;-4.60;99.90;;;;;;5079167;28;20105;-75
2021/01/30 06:33:24;;;;;;;142.88;61.67;;;-4.40;99.90;;;;;;5091739;28;20028;-77
2021/01/30 06:35:55;;;;;;;78.47;37.55;;;-4.40;99.90;;;;;;5082058;28;20037;-74
2021/01/30 06:38:42;;;;;;;37.58;17.83;;;-4.20;99.90;;;;;;5090229;28;20115;-77
2021/01/30 06:41:21;;;;;;;40.75;23.15;;;-4.00;99.90;;;;;;5085297;28;20027;-76
2021/01/30 06:43:57;;;;;;;89.03;41.53;;;-3.90;99.90;;;;;;5065620;28;20028;-74
2021/01/30 06:46:24;;;;;;;74.18;34.50;;;-3.80;99.90;;;;;;5081299;28;20028;-76
2021/01/30 06:48:52;;;;;;;57.35;26.58;;;-3.70;99.70;;;;;;5085737;28;20881;-76
2021/01/30 06:51:27;;;;;;;44.88;22.63;;;-3.70;99.70;;;;;;5084931;28;20374;-76
2021/01/30 06:53:53;;;;;;;45.33;23.10;;;-3.70;99.70;;;;;;5072714;28;20027;-75
2021/01/30 06:56:35;;;;;;;57.15;26.25;;;-3.60;99.90;;;;;;5086467;28;20024;-76
2021/01/30 06:59:04;;;;;;;66.88;29.33;;;-3.60;99.90;;;;;;5086457;28;20035;-76
2021/01/30 07:01:45;;;;;;;68.30;30.25;;;-3.50;99.90;;;;;;5090806;28;20413;-76
2021/01/30 07:04:42;;;;;;;70.70;30.00;;;-3.40;99.90;;;;;;5085107;28;20031;-76
2021/01/30 07:07:25;;;;;;;80.70;33.97;;;-3.30;99.90;;;;;;5065763;28;20032;-77
2021/01/30 07:09:57;;;;;;;68.07;31.38;;;-3.30;99.90;;;;;;5086182;28;20052;-76
2021/01/30 07:12:31;;;;;;;64.70;27.98;;;-3.30;99.90;;;;;;5090326;28;20028;-75
2021/01/30 07:15:12;;;;;;;58.78;27.25;;;-3.20;99.90;;;;;;5066248;28;20381;-77
2021/01/30 07:17:40;;;;;;;60.95;27.88;;;-3.10;99.90;;;;;;5077871;28;20113;-76
2021/01/30 07:20:28;;;;;;;66.22;32.03;;;-3.00;99.90;;;;;;5081166;28;20024;-76
2021/01/30 07:23:06;;;;;;;75.57;36.55;;;-2.90;99.90;;;;;;5063439;28;20111;-76
2021/01/30 07:26:11;;;;;;;87.72;41.13;;;-2.70;99.90;;;;;;5084347;28;20126;-75
2021/01/30 07:28:55;;;;;;;90.57;39.10;;;-2.60;99.90;;;;;;5083398;28;20074;-76
2021/01/30 07:31:41;;;;;;;96.25;39.38;;;-2.50;99.90;;;;;;5064989;28;20029;-76
2021/01/30 07:34:22;;;;;;;105.93;44.25;;;-2.30;99.90;;;;;;5069906;28;20040;-76
2021/01/30 07:36:56;;;;;;;110.63;48.38;;;-2.20;99.90;;;;;;5067513;28;20028;-75
2021/01/30 07:39:42;;;;;;;106.68;43.25;;;-2.10;99.90;;;;;;5062446;28;20089;-76
2021/01/30 07:42:08;;;;;;;;;;;-1.90;99.90;;;;;;5071846;28;20029;-76
2021/01/30 07:44:47;;;;;;;108.93;41.25;;;-1.70;99.90;;;;;;5070797;28;19908;-76
2021/01/30 07:47:23;;;;;;;77.15;34.88;;;-1.60;99.90;;;;;;5076966;28;20076;-76
2021/01/30 07:49:54;;;;;;;67.18;33.15;;;-1.40;99.90;;;;;;5087173;28;20016;-76
2021/01/30 07:52:25;;;;;;;68.93;30.60;;;-1.20;99.90;;;;;;5083977;28;20024;-76
2021/01/30 07:54:54;;;;;;;76.35;35.47;;;-1.10;99.90;;;;;;5081746;28;20020;-76
2021/01/30 07:57:34;;;;;;;55.42;27.95;;;-1.00;99.90;;;;;;5059493;28;20044;-76
2021/01/30 08:00:14;;;;;;;59.88;28.83;;;-0.90;99.90;;;;;;5078372;28;20025;-73
2021/01/30 08:03:22;;;;;;;56.45;27.95;;;-0.90;99.90;;;;;;5089597;28;20031;-66
2021/01/30 08:06:11;;;;;;;46.17;24.52;;;-0.80;99.90;;;;;;5087848;28;20082;-71
2021/01/30 08:08:47;;;;;;;56.65;28.77;;;-0.70;99.90;;;;;;5043410;28;20054;-71
2021/01/30 08:11:36;;;;;;;51.75;27.92;;;-0.60;99.90;;;;;;5087668;28;20370;-71
2021/01/30 08:14:21;;;;;;;42.40;21.52;;;-0.50;99.90;;;;;;5079261;28;20086;-72
2021/01/30 08:17:06;;;;;;;41.53;23.23;;;-0.40;99.90;;;;;;5079897;28;20020;-72
2021/01/30 08:19:54;;;;;;;43.28;21.50;;;-0.30;99.90;;;;;;5092462;28;20441;-72
2021/01/30 08:22:27;;;;;;;42.67;23.05;;;-0.30;99.90;;;;;;5094498;28;20104;-71
2021/01/30 08:25:07;;;;;;;41.33;21.70;;;-0.30;99.90;;;;;;5089438;28;20153;-72
2021/01/30 08:27:38;;;;;;;45.25;25.08;;;-0.20;99.90;;;;;;5069845;28;20099;-71
2021/01/30 08:30:10;;;;;;;41.28;21.90;;;-0.20;99.90;;;;;;5085041;28;20442;-72
2021/01/30 08:32:39;;;;;;;55.03;30.95;;;-0.20;99.90;;;;;;5073759;28;20466;-72
2021/01/30 08:35:20;;;;;;;55.63;27.23;;;-0.10;99.90;;;;;;5091781;28;20098;-72
2021/01/30 08:38:08;;;;;;;48.92;24.70;;;0.00;99.90;;;;;;5079342;28;20032;-72
2021/01/30 08:40:52;;;;;;;68.05;31.92;;;0.10;99.90;;;;;;5086888;28;20028;-72
2021/01/30 08:43:42;;;;;;;38.28;19.20;;;0.10;99.90;;;;;;5082300;28;20158;-73
2021/01/30 08:46:16;;;;;;;49.88;24.48;;;0.10;99.80;;;;;;5080748;28;20077;-72
2021/01/30 08:48:45;;;;;;;32.55;16.63;;;0.20;99.80;;;;;;5080209;28;20079;-72
2021/01/30 08:51:21;;;;;;;37.63;19.17;;;0.20;99.90;;;;;;5095156;28;20023;-71
2021/01/30 08:53:47;;;;;;;40.53;23.02;;;0.30;99.90;;;;;;5070256;28;20492;-74
2021/01/30 08:56:47;;;;;;;55.13;31.48;;;0.20;99.40;;;;;;5091117;28;20051;-74
2021/01/30 08:59:48;;;;;;;39.40;21.75;;;0.20;99.40;;;;;;5090035;28;20077;-78
2021/01/30 09:02:29;;;;;;;38.75;21.83;;;0.10;99.10;;;;;;5064007;28;20048;-76
2021/01/30 09:05:01;;;;;;;38.50;19.40;;;0.00;99.00;;;;;;5091430;28;20416;-78
2021/01/30 09:07:51;;;;;;;30.27;17.67;;;-0.10;98.70;;;;;;5063788;28;20029;-78
2021/01/30 09:10:34;;;;;;;44.58;24.50;;;-0.20;98.80;;;;;;5052557;28;20478;-78
2021/01/30 09:13:11;;;;;;;35.55;20.33;;;-0.30;99.00;;;;;;5092870;28;20081;-77
2021/01/30 09:15:42;;;;;;;47.83;22.30;;;-0.40;98.70;;;;;;5070486;28;20109;-79
2021/01/30 09:18:27;;;;;;;51.67;27.00;;;-0.40;99.00;;;;;;5092684;28;20039;-78
2021/01/30 09:21:06;;;;;;;71.65;34.88;;;-0.40;99.30;;;;;;5092459;28;20031;-79
2021/01/30 09:23:48;;;;;;;73.18;33.45;;;-0.40;99.60;;;;;;5072410;28;20032;-79
2021/01/30 09:26:14;;;;;;;48.70;25.10;;;-0.40;99.90;;;;;;5086869;28;20055;-78
2021/01/30 09:28:39;;;;;;;61.63;29.90;;;-0.30;99.90;;;;;;5071377;28;20032;-77
2021/01/30 09:31:16;;;;;;;73.47;32.75;;;-0.30;99.80;;;;;;5072821;28;20021;-79
2021/01/30 09:34:06;;;;;;;58.05;29.15;;;-0.30;99.90;;;;;;5090038;28;20036;-78
2021/01/30 09:36:44;;;;;;;50.88;26.13;;;-0.20;99.90;;;;;;5066925;28;20359;-75
2021/01/30 09:39:40;;;;;;;56.28;28.15;;;-0.20;99.90;;;;;;5074536;28;20827;-75
2021/01/30 09:42:18;;;;;;;51.30;25.73;;;-0.10;99.90;;;;;;5073480;28;20074;-74
2021/01/30 09:44:45;;;;;;;41.78;20.40;;;0.00;99.90;;;;;;5067262;28;20481;-76
2021/01/30 09:47:18;;;;;;;42.03;21.85;;;0.10;99.90;;;;;;5088796;28;20458;-75
2021/01/30 09:49:47;;;;;;;54.97;26.67;;;0.10;99.90;;;;;;5090679;28;20021;-78
2021/01/30 09:52:16;;;;;;;51.05;25.13;;;0.10;99.90;;;;;;5089274;28;20066;-77
2021/01/30 09:54:42;;;;;;;67.68;34.65;;;0.20;99.90;;;;;;5100888;28;20127;-78
2021/01/30 09:57:22;;;;;;;64.30;32.30;;;0.20;99.90;;;;;;5073144;28;20566;-76
2021/01/30 09:59:56;;;;;;;85.32;40.30;;;0.20;99.90;;;;;;5085513;28;20035;-77
2021/01/30 10:02:24;;;;;;;68.20;34.35;;;0.30;99.90;;;;;;5090525;28;20028;-77
2021/01/30 10:05:21;;;;;;;84.45;39.45;;;0.40;99.90;;;;;;5089036;28;20116;-72
2021/01/30 10:07:46;;;;;;;83.60;38.42;;;0.60;99.90;;;;;;5085452;28;20074;-72
2021/01/30 10:10:27;;;;;;;84.50;39.85;;;0.80;99.90;;;;;;5084382;28;20439;-81
2021/01/30 10:12:55;;;;;;;75.15;37.47;;;0.90;99.90;;;;;;5066397;28;20024;-81
2021/01/30 10:15:29;;;;;;;62.60;33.40;;;1.00;99.90;;;;;;5068976;28;20035;-75
2021/01/30 10:18:01;;;;;;;61.83;33.00;;;1.10;99.90;;;;;;5084338;28;20079;-80
2021/01/30 10:20:27;;;;;;;63.47;33.95;;;1.20;99.90;;;;;;5092778;28;20051;-82
2021/01/30 10:22:53;;;;;;;59.25;29.88;;;1.30;99.90;;;;;;5092658;28;20031;-80
2021/01/30 10:25:23;;;;;;;57.08;30.75;;;1.40;99.90;;;;;;5066021;28;20020;-82
2021/01/30 10:27:49;;;;;;;66.68;34.20;;;1.50;99.90;;;;;;5081575;28;20032;-81
2021/01/30 10:30:17;;;;;;;65.95;33.65;;;1.50;99.90;;;;;;5076142;28;20024;-79
2021/01/30 10:32:48;;;;;;;67.40;34.10;;;1.50;99.90;;;;;;5076343;28;20385;-79
2021/01/30 10:35:29;;;;;;;67.40;34.42;;;1.50;99.90;;;;;;5075192;28;20050;-77
2021/01/30 10:38:17;;;;;;;81.60;39.45;;;1.60;99.90;;;;;;5093139;28;20024;-78
2021/01/30 10:40:54;;;;;;;88.95;41.92;;;1.50;99.90;;;;;;5075608;28;20119;-78
2021/01/30 10:43:27;;;;;;;57.13;28.90;;;1.50;99.90;;;;;;5075817;28;20032;-76
2021/01/30 10:45:59;;;;;;;77.65;37.88;;;1.40;99.80;;;;;;5093297;28;20020;-76
2021/01/30 10:48:34;;;;;;;77.07;37.80;;;1.30;99.60;;;;;;5075533;28;20047;-76
2021/01/30 10:51:07;;;;;;;59.38;30.50;;;1.30;99.70;;;;;;5075988;28;20432;-77
2021/01/30 10:53:43;;;;;;;77.85;37.22;;;1.20;99.80;;;;;;5076243;28;20131;-78
2021/01/30 10:56:22;;;;;;;82.32;37.92;;;1.20;99.90;;;;;;5093817;28;20082;-77
2021/01/30 10:58:50;;;;;;;84.07;39.83;;;1.20;99.90;;;;;;5094227;28;20024;-77
2021/01/30 11:01:19;;;;;;;76.97;38.42;;;1.20;99.90;;;;;;5076019;28;20032;-78
2021/01/30 11:03:56;;;;;;;71.70;37.08;;;1.30;99.90;;;;;;5094449;28;20078;-77
2021/01/30 11:06:39;;;;;;;71.70;35.35;;;1.30;99.90;;;;;;5093806;28;20032;-76
2021/01/30 11:09:16;;;;;;;76.80;37.30;;;1.30;99.90;;;;;;5076117;28;20039;-77
2021/01/30 11:11:44;;;;;;;79.00;39.45;;;1.30;99.90;;;;;;5076144;28;20351;-77
2021/01/30 11:14:26;;;;;;;72.20;34.05;;;1.30;99.90;;;;;;5075562;28;20031;-78
2021/01/30 11:16:52;;;;;;;59.38;32.60;;;1.30;99.90;;;;;;5075339;28;20466;-78
2021/01/30 11:19:41;;;;;;;64.57;33.53;;;1.30;99.90;;;;;;5094169;28;20039;-78
2021/01/30 11:22:17;;;;;;;59.78;31.55;;;1.20;99.90;;;;;;5082013;28;20068;-77
2021/01/30 11:24:47;;;;;;;55.88;31.70;;;1.20;99.90;;;;;;5093703;28;20024;-78
2021/01/30 11:27:37;;;;;;;63.50;32.83;;;1.20;99.90;;;;;;5093515;28;20038;-78
2021/01/30 11:30:22;;;;;;;59.40;30.02;;;1.20;99.90;;;;;;5093487;28;20020;-77
2021/01/30 11:32:49;;;;;;;58.38;29.60;;;1.20;99.90;;;;;;5093469;28;20028;-79
2021/01/30 11:35:26;;;;;;;55.03;28.88;;;1.30;99.90;;;;;;5093399;28;20515;-78
2021/01/30 11:37:53;;;;;;;62.35;30.13;;;1.20;99.90;;;;;;5093115;28;20097;-79
2021/01/30 11:40:19;;;;;;;50.22;25.05;;;1.20;99.90;;;;;;5075297;28;20042;-78
2021/01/30 11:42:45;;;;;;;56.97;26.05;;;1.20;99.90;;;;;;5093673;28;20103;-79
2021/01/30 11:45:12;;;;;;;53.58;26.08;;;1.20;99.90;;;;;;5075313;28;20055;-79
2021/01/30 11:47:38;;;;;;;67.30;31.85;;;1.20;99.90;;;;;;5093239;28;20130;-79
2021/01/30 11:50:05;;;;;;;63.13;31.90;;;1.20;99.90;;;;;;5074725;28;20028;-78
2021/01/30 11:52:31;;;;;;;55.28;29.20;;;1.20;99.90;;;;;;5092789;28;20050;-79
2021/01/30 11:54:56;;;;;;;52.97;26.33;;;1.30;99.90;;;;;;5093374;28;20458;-79
2021/01/30 11:57:22;;;;;;;63.85;31.60;;;1.30;99.90;;;;;;5092921;28;20108;-79
2021/01/30 11:59:48;;;;;;;66.35;29.45;;;1.40;99.90;;;;;;5075184;28;20123;-79
2021/01/30 12:02:29;;;;;;;60.78;29.58;;;1.30;99.90;;;;;;5074373;28;20462;-79
2021/01/30 12:04:55;;;;;;;72.00;33.67;;;1.30;99.90;;;;;;5080027;28;20032;-79
2021/01/30 12:07:21;;;;;;;60.70;30.90;;;1.30;99.90;;;;;;5093441;28;20036;-79
2021/01/30 12:09:46;;;;;;;67.95;32.22;;;1.30;99.90;;;;;;5092946;28;20024;-79
2021/01/30 12:12:12;;;;;;;67.55;32.42;;;1.30;99.90;;;;;;5092997;28;20024;-79
2021/01/30 12:14:38;;;;;;;63.90;32.35;;;1.30;99.90;;;;;;5074738;28;20420;-79
2021/01/30 12:17:04;;;;;;;72.70;34.05;;;1.20;99.90;;;;;;5092651;28;20031;-79
2021/01/30 12:19:30;;;;;;;77.63;37.40;;;1.20;99.90;;;;;;5074342;28;20478;-79
2021/01/30 12:21:56;;;;;;;77.80;36.03;;;1.20;99.90;;;;;;5092306;28;20055;-79
2021/01/30 12:24:22;;;;;;;73.20;36.22;;;1.20;99.90;;;;;;5093031;28;20028;-79
2021/01/30 12:26:48;;;;;;;76.57;40.78;;;1.20;99.90;;;;;;5092393;28;20017;-79
2021/01/30 12:29:13;;;;;;;76.07;35.83;;;1.30;99.90;;;;;;5074713;28;20028;-79
2021/01/30 12:31:39;;;;;;;79.28;37.58;;;1.30;99.90;;;;;;5092754;28;20028;-79
2021/01/30 12:34:05;;;;;;;84.47;39.38;;;1.40;99.90;;;;;;5095227;28;20454;-78
2021/01/30 12:36:30;;;;;;;82.60;38.35;;;1.40;99.90;;;;;;5097414;28;20028;-77
2021/01/30 12:38:56;;;;;;;85.50;41.60;;;1.40;99.90;;;;;;5096609;28;20081;-77
2021/01/30 12:41:22;;;;;;;100.57;44.30;;;1.40;99.90;;;;;;5096824;28;20024;-78
2021/01/30 12:43:47;;;;;;;70.55;35.90;;;1.50;99.90;;;;;;5078631;28;20081;-77
2021/01/30 12:46:14;;;;;;;69.00;34.20;;;1.40;99.90;;;;;;5078422;28;20133;-78
2021/01/30 12:48:40;;;;;;;69.55;35.42;;;1.40;99.90;;;;;;5078594;28;20059;-78
2021/01/30 12:51:06;;;;;;;72.53;34.75;;;1.50;99.90;;;;;;5096889;28;20103;-78
2021/01/30 12:53:31;;;;;;;68.53;34.20;;;1.40;99.90;;;;;;5078605;28;20036;-78
2021/01/30 12:55:57;;;;;;;70.72;34.45;;;1.40;99.90;;;;;;5078683;28;20016;-77
2021/01/30 12:58:27;;;;;;;65.95;32.92;;;1.40;99.90;;;;;;5078490;28;20031;-78
2021/01/30 13:00:53;;;;;;;66.13;31.45;;;1.40;99.90;;;;;;5096816;28;20044;-77
2021/01/30 13:03:19;;;;;;;72.55;35.55;;;1.50;99.90;;;;;;5096361;28;20027;-78